createdAt,value
2023-03-08T00:01:19.481Z,2.60
2023-03-08T00:03:46.808Z,3.33
2023-03-08T00:06:16.858Z,3.03
2023-03-08T00:08:43.732Z,2.53
2023-03-08T00:11:12.540Z,2.78
2023-03-08T00:13:40.002Z,3.00
2023-03-08T00:16:10.468Z,2.67
2023-03-08T00:18:37.531Z,2.75
2023-03-08T00:21:11.047Z,2.42
2023-03-08T00:23:38.018Z,2.00
2023-03-08T00:26:05.259Z,2.05
2023-03-08T00:28:32.427Z,1.65
2023-03-08T00:31:10.742Z,1.95
2023-03-08T00:33:37.975Z,1.98
2023-03-08T00:36:14.519Z,1.90
2023-03-08T00:38:41.358Z,1.77
2023-03-08T00:41:08.183Z,1.85
2023-03-08T00:43:35.028Z,2.50
2023-03-08T00:46:01.906Z,2.35
2023-03-08T00:48:28.606Z,2.30
2023-03-08T00:50:55.143Z,2.80
2023-03-08T00:53:21.776Z,2.75
2023-03-08T00:55:54.054Z,2.47
2023-03-08T00:58:21.788Z,1.98
2023-03-08T01:00:48.814Z,2.13
2023-03-08T01:03:16.585Z,2.22
2023-03-08T01:05:45.467Z,2.50
2023-03-08T01:08:12.862Z,2.90
2023-03-08T01:10:39.862Z,4.53
2023-03-08T01:13:08.155Z,4.22
2023-03-08T01:15:38.594Z,4.13
2023-03-08T01:18:06.370Z,3.80
2023-03-08T01:20:33.842Z,3.95
2023-03-08T01:23:00.507Z,4.72
2023-03-08T01:25:27.618Z,5.35
2023-03-08T01:27:54.420Z,4.25
2023-03-08T01:30:21.658Z,4.22
2023-03-08T01:32:48.446Z,4.35
2023-03-08T01:35:15.348Z,4.25
2023-03-08T01:37:42.021Z,3.55
2023-03-08T01:40:10.393Z,3.92
2023-03-08T01:42:40.414Z,7.28
2023-03-08T01:45:45.556Z,6.30
2023-03-08T01:48:14.137Z,7.38
2023-03-08T01:50:41.625Z,6.80
2023-03-08T01:53:08.394Z,5.93
2023-03-08T01:55:35.674Z,6.40
2023-03-08T01:58:02.470Z,6.65
2023-03-08T02:00:29.124Z,7.07
2023-03-08T02:03:04.230Z,7.15
2023-03-08T02:05:31.672Z,6.82
2023-03-08T02:07:58.470Z,6.68
2023-03-08T02:10:25.513Z,6.35
2023-03-08T02:12:52.237Z,7.10
2023-03-08T02:15:20.665Z,7.15
2023-03-08T02:17:47.987Z,7.60
2023-03-08T02:20:36.727Z,6.65
2023-03-08T02:23:34.020Z,6.00
2023-03-08T02:26:04.764Z,7.45
2023-03-08T02:28:32.804Z,7.82
2023-03-08T02:30:59.932Z,8.02
2023-03-08T02:33:26.684Z,8.50
2023-03-08T02:35:53.746Z,8.45
2023-03-08T02:38:21.859Z,8.10
2023-03-08T02:40:51.570Z,7.45
2023-03-08T02:43:18.667Z,6.75
2023-03-08T02:45:45.794Z,7.22
2023-03-08T02:48:12.846Z,7.53
2023-03-08T02:50:39.499Z,7.63
2023-03-08T02:53:06.385Z,7.38
2023-03-08T02:55:36.215Z,7.82
2023-03-08T02:58:07.875Z,7.40
2023-03-08T03:00:34.762Z,7.80
2023-03-08T03:03:01.298Z,7.47
2023-03-08T03:05:28.137Z,5.50
2023-03-08T03:07:56.905Z,6.97
2023-03-08T03:10:23.522Z,6.45
2023-03-08T03:12:50.068Z,6.63
2023-03-08T03:15:16.784Z,6.95
2023-03-08T03:17:43.445Z,6.03
2023-03-08T03:20:10.774Z,5.63
2023-03-08T03:22:37.574Z,5.63
2023-03-08T03:25:04.994Z,5.97
2023-03-08T03:27:31.663Z,5.75
2023-03-08T03:29:58.271Z,6.38
2023-03-08T03:32:25.071Z,5.65
2023-03-08T03:34:51.770Z,6.35
2023-03-08T03:37:18.461Z,6.15
2023-03-08T03:39:45.141Z,7.90
2023-03-08T03:42:11.901Z,7.13
2023-03-08T03:44:38.477Z,7.32
2023-03-08T03:47:05.842Z,6.05
2023-03-08T03:49:32.419Z,7.13
2023-03-08T03:51:59.307Z,7.57
2023-03-08T03:54:26.417Z,6.38
2023-03-08T03:56:53.222Z,8.95
2023-03-08T03:59:19.928Z,7.25
2023-03-08T04:01:46.502Z,7.53
2023-03-08T04:04:13.083Z,7.68
2023-03-08T04:06:39.777Z,7.75
2023-03-08T04:09:08.565Z,8.95
2023-03-08T04:11:37.534Z,8.07
2023-03-08T04:14:05.245Z,7.38
2023-03-08T04:16:34.480Z,8.57
2023-03-08T04:19:04.842Z,8.35
2023-03-08T04:21:32.166Z,6.38
2023-03-08T04:24:00.697Z,4.97
2023-03-08T04:26:28.034Z,4.93
2023-03-08T04:28:54.707Z,5.40
2023-03-08T04:31:27.150Z,5.18
2023-03-08T04:33:54.244Z,5.07
2023-03-08T04:36:21.890Z,4.40
2023-03-08T04:38:49.232Z,4.63
2023-03-08T04:41:16.495Z,5.30
2023-03-08T04:43:48.747Z,4.28
2023-03-08T04:46:17.101Z,4.57
2023-03-08T04:48:44.409Z,4.20
2023-03-08T04:51:12.584Z,4.82
2023-03-08T04:53:41.512Z,5.45
2023-03-08T04:56:09.370Z,4.63
2023-03-08T04:58:37.216Z,5.32
2023-03-08T05:01:23.178Z,5.53
2023-03-08T05:03:51.461Z,7.88
2023-03-08T05:06:18.954Z,7.57
2023-03-08T05:08:45.670Z,5.72
2023-03-08T05:11:19.259Z,7.40
2023-03-08T05:13:46.070Z,5.85
2023-03-08T05:16:12.981Z,6.43
2023-03-08T05:18:39.611Z,6.13
2023-03-08T05:21:10.000Z,6.30
2023-03-08T05:23:36.917Z,6.55
2023-03-08T05:26:05.346Z,6.57
2023-03-08T05:28:33.469Z,6.70
2023-03-08T05:31:04.973Z,6.65
2023-03-08T05:33:32.061Z,7.90
2023-03-08T05:35:58.971Z,7.60
2023-03-08T05:38:26.645Z,6.88
2023-03-08T05:40:53.547Z,6.70
2023-03-08T05:43:20.588Z,6.88
2023-03-08T05:46:00.601Z,8.50
2023-03-08T05:48:27.242Z,8.80
2023-03-08T05:50:54.582Z,9.02
2023-03-08T05:53:22.435Z,9.80
2023-03-08T05:55:49.601Z,12.27
2023-03-08T05:58:16.693Z,13.48
2023-03-08T06:00:43.270Z,11.98
2023-03-08T06:03:09.925Z,12.93
2023-03-08T06:05:36.729Z,12.60
2023-03-08T06:08:03.480Z,11.60
2023-03-08T06:10:30.220Z,16.77
2023-03-08T06:12:56.782Z,14.32
2023-03-08T06:15:23.364Z,15.07
2023-03-08T06:17:53.029Z,15.55
2023-03-08T06:20:19.938Z,12.88
2023-03-08T06:22:46.648Z,11.15
2023-03-08T06:25:13.230Z,10.10
2023-03-08T06:27:40.352Z,11.00
2023-03-08T06:30:07.395Z,9.32
2023-03-08T06:32:35.707Z,10.73
2023-03-08T06:35:02.472Z,8.68
2023-03-08T06:37:33.268Z,6.13
2023-03-08T06:40:00.635Z,6.50
2023-03-08T06:42:40.235Z,5.25
2023-03-08T06:45:09.019Z,5.57
2023-03-08T06:47:35.707Z,5.47
2023-03-08T06:50:02.343Z,4.35
2023-03-08T06:52:34.969Z,4.63
2023-03-08T06:55:01.605Z,3.90
2023-03-08T06:57:28.459Z,4.72
2023-03-08T06:59:55.190Z,4.75
2023-03-08T07:02:21.884Z,4.57
2023-03-08T07:04:49.684Z,3.95
2023-03-08T07:07:16.595Z,4.18
2023-03-08T07:09:43.302Z,3.85
2023-03-08T07:12:10.028Z,4.20
2023-03-08T07:14:36.659Z,6.20
2023-03-08T07:17:03.327Z,5.28
2023-03-08T07:19:31.137Z,4.40
2023-03-08T07:21:57.654Z,5.03
2023-03-08T07:24:24.345Z,5.22
2023-03-08T07:26:51.071Z,5.20
2023-03-08T07:29:17.707Z,4.93
2023-03-08T07:31:44.420Z,4.80
2023-03-08T07:34:11.114Z,5.32
2023-03-08T07:36:39.862Z,4.90
2023-03-08T07:39:06.509Z,5.85
2023-03-08T07:41:34.756Z,5.05
2023-03-08T07:44:02.553Z,5.10
2023-03-08T07:46:29.715Z,4.63
2023-03-08T07:48:56.376Z,5.55
2023-03-08T07:51:23.301Z,4.82
2023-03-08T07:53:51.743Z,4.60
2023-03-08T07:56:18.609Z,4.63
2023-03-08T07:58:46.121Z,4.38
2023-03-08T08:01:14.483Z,4.43
2023-03-08T08:03:41.607Z,3.97
2023-03-08T08:06:09.160Z,4.05
2023-03-08T08:08:35.817Z,4.28
2023-03-08T08:11:02.535Z,4.10
2023-03-08T08:13:29.158Z,4.28
2023-03-08T08:16:00.507Z,3.47
2023-03-08T08:18:27.977Z,3.30
2023-03-08T08:21:10.726Z,3.22
2023-03-08T08:23:39.877Z,3.70
2023-03-08T08:26:08.656Z,3.08
2023-03-08T08:28:35.437Z,3.75
2023-03-08T08:31:07.809Z,4.50
2023-03-08T08:33:34.812Z,3.88
2023-03-08T08:36:04.777Z,3.75
2023-03-08T08:38:31.690Z,4.68
2023-03-08T08:41:06.200Z,4.72
2023-03-08T08:43:34.981Z,4.25
2023-03-08T08:46:03.107Z,4.05
2023-03-08T08:48:30.105Z,3.70
2023-03-08T08:50:58.343Z,4.07
2023-03-08T08:53:25.365Z,4.18
2023-03-08T08:55:51.974Z,4.22
2023-03-08T08:58:18.587Z,4.00
2023-03-08T09:00:47.922Z,4.47
2023-03-08T09:03:14.796Z,5.20
2023-03-08T09:05:43.852Z,4.88
2023-03-08T09:08:11.369Z,6.30
2023-03-08T09:10:40.062Z,5.43
2023-03-08T09:13:07.072Z,5.85
2023-03-08T09:15:37.276Z,4.97
2023-03-08T09:18:04.477Z,5.47
2023-03-08T09:20:31.235Z,6.25
2023-03-08T09:22:57.957Z,5.85
2023-03-08T09:25:24.582Z,5.93
2023-03-08T09:27:51.237Z,6.82
2023-03-08T09:30:18.247Z,5.70
2023-03-08T09:32:44.915Z,6.32
2023-03-08T09:35:11.555Z,6.57
2023-03-08T09:37:38.286Z,7.25
2023-03-08T09:40:09.652Z,6.72
2023-03-08T09:42:37.282Z,6.13
2023-03-08T09:45:07.766Z,7.55
2023-03-08T09:48:01.448Z,6.50
2023-03-08T09:50:50.963Z,6.95
2023-03-08T09:53:39.897Z,6.20
2023-03-08T09:56:31.718Z,6.88
2023-03-08T09:59:17.109Z,5.63
2023-03-08T10:01:52.683Z,6.82
2023-03-08T10:04:40.840Z,5.93
2023-03-08T10:07:13.212Z,5.18
2023-03-08T10:09:48.018Z,6.22
2023-03-08T10:12:37.710Z,6.85
2023-03-08T10:15:21.391Z,5.97
2023-03-08T10:17:59.900Z,5.35
2023-03-08T10:20:34.284Z,5.40
2023-03-08T10:23:06.829Z,4.82
2023-03-08T10:25:34.993Z,4.88
2023-03-08T10:28:04.334Z,4.93
2023-03-08T10:30:37.074Z,4.38
2023-03-08T10:33:09.140Z,5.25
2023-03-08T10:35:50.212Z,4.90
2023-03-08T10:38:17.345Z,5.47
2023-03-08T10:40:44.245Z,4.28
2023-03-08T10:43:25.455Z,4.05
2023-03-08T10:46:11.254Z,4.10
2023-03-08T10:48:38.024Z,3.63
2023-03-08T10:51:14.038Z,3.70
2023-03-08T10:53:40.690Z,3.60
2023-03-08T10:56:24.717Z,4.30
2023-03-08T10:58:55.124Z,2.95
2023-03-08T11:01:30.894Z,1.08
2023-03-08T11:04:06.588Z,0.60
2023-03-08T11:06:37.440Z,0.68
2023-03-08T11:09:19.112Z,0.50
2023-03-08T11:11:45.776Z,0.60
2023-03-08T11:14:12.531Z,0.60
2023-03-08T11:16:45.912Z,0.60
2023-03-08T11:19:15.781Z,0.63
2023-03-08T11:22:02.380Z,0.70
2023-03-08T11:24:59.843Z,0.40
2023-03-08T11:27:48.283Z,0.40
2023-03-08T11:30:20.941Z,0.20
2023-03-08T11:32:53.330Z,0.77
2023-03-08T11:35:42.883Z,0.30
2023-03-08T11:38:28.720Z,0.40
2023-03-08T11:41:16.212Z,0.30
2023-03-08T11:44:20.403Z,0.30
2023-03-08T11:47:02.132Z,6.22
2023-03-08T11:49:53.052Z,1.58
2023-03-08T11:53:01.081Z,0.40
2023-03-08T11:55:33.955Z,0.50
2023-03-08T11:58:14.389Z,0.40
2023-03-08T12:00:43.837Z,0.32
2023-03-08T12:03:16.267Z,0.40
2023-03-08T12:05:54.719Z,0.30
2023-03-08T12:08:31.817Z,0.55
2023-03-08T12:11:19.291Z,0.40
2023-03-08T12:13:54.031Z,0.77
2023-03-08T12:16:26.489Z,0.30
2023-03-08T12:19:10.545Z,0.35
2023-03-08T12:21:58.883Z,0.20
2023-03-08T12:24:42.040Z,0.38
2023-03-08T12:27:19.072Z,0.88
2023-03-08T12:29:52.762Z,0.43
2023-03-08T12:32:20.998Z,0.40
2023-03-08T12:34:48.436Z,0.40
2023-03-08T12:37:27.165Z,0.30
2023-03-08T12:40:26.528Z,0.30
2023-03-08T12:43:13.990Z,0.85
2023-03-08T12:45:46.028Z,0.50
2023-03-08T12:48:24.310Z,0.30
2023-03-08T12:50:54.315Z,0.50
2023-03-08T12:53:26.872Z,0.30
2023-03-08T12:56:07.130Z,0.20
2023-03-08T12:58:36.913Z,0.30
2023-03-08T13:01:08.936Z,5.93
2023-03-08T13:03:41.479Z,13.43
2023-03-08T13:06:23.065Z,2.05
2023-03-08T13:08:56.056Z,0.80
2023-03-08T13:11:25.894Z,0.50
2023-03-08T13:14:01.173Z,0.60
2023-03-08T13:16:32.619Z,0.85
2023-03-08T13:19:17.892Z,0.52
2023-03-08T13:22:09.001Z,0.40
2023-03-08T13:24:41.539Z,0.70
2023-03-08T13:27:33.423Z,0.30
2023-03-08T13:30:20.675Z,0.30
2023-03-08T13:32:49.613Z,0.30
2023-03-08T13:35:18.222Z,0.30
2023-03-08T13:37:56.642Z,0.30
2023-03-08T13:40:23.823Z,0.40
2023-03-08T13:43:11.416Z,0.40
2023-03-08T13:45:38.059Z,0.40
2023-03-08T13:48:09.159Z,0.50
2023-03-08T13:50:38.870Z,0.40
2023-03-08T13:53:11.120Z,1.23
2023-03-08T13:55:44.634Z,1.40
2023-03-08T13:58:40.120Z,0.60
2023-03-08T14:01:25.038Z,0.60
2023-03-08T14:03:55.046Z,0.52
2023-03-08T14:06:27.102Z,0.63
2023-03-08T14:08:59.596Z,0.30
2023-03-08T14:11:34.824Z,0.40
2023-03-08T14:14:04.685Z,0.50
2023-03-08T14:16:37.000Z,0.82
2023-03-08T14:19:22.103Z,2.90
2023-03-08T14:21:51.702Z,8.98
2023-03-08T14:24:24.569Z,1.38
2023-03-08T14:27:02.252Z,0.70
2023-03-08T14:29:31.012Z,0.80
2023-03-08T14:32:23.084Z,0.60
2023-03-08T14:34:50.284Z,0.50
2023-03-08T14:37:31.393Z,0.50
2023-03-08T14:40:24.653Z,0.73
2023-03-08T14:42:55.474Z,0.65
2023-03-08T14:45:34.086Z,0.50
2023-03-08T14:48:25.463Z,0.70
2023-03-08T14:50:55.369Z,0.50
2023-03-08T14:53:29.665Z,0.40
2023-03-08T14:55:58.236Z,0.40
2023-03-08T14:58:31.162Z,0.60
2023-03-08T15:01:01.343Z,0.50
2023-03-08T15:03:30.414Z,0.40
2023-03-08T15:05:57.803Z,0.50
2023-03-08T15:08:25.626Z,0.57
2023-03-08T15:10:52.509Z,0.60
2023-03-08T15:13:22.327Z,0.40
2023-03-08T15:15:49.633Z,0.50
2023-03-08T15:18:16.754Z,0.50
2023-03-08T15:20:49.516Z,0.40
2023-03-08T15:23:31.273Z,1.52
2023-03-08T15:25:59.428Z,0.50
2023-03-08T15:28:26.229Z,0.90
2023-03-08T15:30:54.940Z,0.60
2023-03-08T15:33:22.781Z,0.80
2023-03-08T15:35:50.470Z,0.65
2023-03-08T15:38:18.756Z,0.70
2023-03-08T15:40:45.580Z,0.77
2023-03-08T15:43:12.176Z,0.70
2023-03-08T15:45:39.108Z,0.50
2023-03-08T15:48:08.219Z,0.60
2023-03-08T15:50:35.845Z,0.50
2023-03-08T15:53:02.900Z,8.18
2023-03-08T15:55:31.769Z,0.80
2023-03-08T15:57:59.153Z,0.50
2023-03-08T16:00:26.892Z,0.40
2023-03-08T16:02:53.935Z,0.50
2023-03-08T16:05:23.449Z,1.25
2023-03-08T16:08:01.912Z,0.75
2023-03-08T16:10:31.737Z,0.60
2023-03-08T16:12:58.362Z,0.40
2023-03-08T16:15:25.084Z,0.55
2023-03-08T16:17:51.696Z,0.70
2023-03-08T16:20:18.804Z,0.80
2023-03-08T16:22:45.832Z,1.00
2023-03-08T16:25:12.478Z,1.33
2023-03-08T16:27:39.140Z,2.65
2023-03-08T16:30:06.506Z,0.80
2023-03-08T16:32:33.478Z,1.50
2023-03-08T16:35:01.115Z,1.38
2023-03-08T16:37:28.230Z,2.08
2023-03-08T16:39:55.230Z,2.28
2023-03-08T16:42:22.612Z,1.38
2023-03-08T16:44:52.346Z,1.52
2023-03-08T16:47:20.467Z,2.00
2023-03-08T16:49:47.564Z,1.30
2023-03-08T16:52:16.008Z,2.17
2023-03-08T16:54:42.856Z,1.50
2023-03-08T16:57:19.113Z,1.73
2023-03-08T16:59:47.344Z,1.95
2023-03-08T17:02:16.396Z,2.95
2023-03-08T17:04:43.308Z,2.33
2023-03-08T17:07:10.835Z,2.85
2023-03-08T17:09:38.613Z,3.25
2023-03-08T17:12:06.266Z,2.50
2023-03-08T17:14:34.885Z,2.00
2023-03-08T17:17:02.722Z,2.00
2023-03-08T17:19:29.384Z,3.50
2023-03-08T17:21:56.610Z,5.82
2023-03-08T17:24:23.586Z,3.55
2023-03-08T17:26:52.897Z,3.60
2023-03-08T17:29:19.955Z,14.30
2023-03-08T17:31:46.648Z,7.82
2023-03-08T17:34:14.014Z,4.00
2023-03-08T17:36:41.248Z,4.38
2023-03-08T17:39:08.279Z,4.03
2023-03-08T17:41:35.879Z,3.70
2023-03-08T17:44:02.520Z,2.78
2023-03-08T17:46:29.558Z,3.22
2023-03-08T17:48:56.884Z,4.38
2023-03-08T17:51:26.773Z,3.58
2023-03-08T17:53:54.168Z,2.92
2023-03-08T17:56:25.200Z,6.88
2023-03-08T17:58:52.740Z,6.88
2023-03-08T18:01:22.425Z,20.45
2023-03-08T18:03:49.390Z,20.02
2023-03-08T18:06:21.245Z,15.32
2023-03-08T18:08:48.038Z,12.30
2023-03-08T18:11:14.705Z,11.80
2023-03-08T18:13:41.421Z,9.48
2023-03-08T18:16:08.613Z,12.93
2023-03-08T18:18:35.372Z,7.38
2023-03-08T18:21:12.625Z,7.47
2023-03-08T18:23:39.588Z,8.02
2023-03-08T18:26:06.377Z,6.47
2023-03-08T18:28:34.253Z,6.60
2023-03-08T18:31:05.249Z,6.03
2023-03-08T18:33:32.003Z,6.53
2023-03-08T18:35:58.744Z,6.18
2023-03-08T18:38:25.444Z,6.15
2023-03-08T18:40:52.039Z,4.40
2023-03-08T18:43:19.186Z,4.88
2023-03-08T18:45:56.601Z,4.38
2023-03-08T18:48:24.226Z,4.13
2023-03-08T18:50:50.891Z,3.55
2023-03-08T18:53:18.173Z,3.53
2023-03-08T18:55:59.871Z,2.17
2023-03-08T18:58:27.405Z,2.15
2023-03-08T19:00:57.938Z,1.40
2023-03-08T19:03:26.475Z,1.50
2023-03-08T19:05:53.158Z,1.90
2023-03-08T19:08:20.028Z,1.70
2023-03-08T19:10:46.562Z,1.60
2023-03-08T19:13:13.277Z,1.02
2023-03-08T19:15:40.338Z,1.00
2023-03-08T19:18:07.086Z,0.88
2023-03-08T19:20:38.681Z,0.90
2023-03-08T19:23:05.356Z,0.82
2023-03-08T19:25:57.228Z,0.60
2023-03-08T19:28:24.191Z,1.05
2023-03-08T19:30:50.816Z,0.60
2023-03-08T19:33:29.811Z,0.63
2023-03-08T19:35:57.054Z,0.70
2023-03-08T19:38:24.022Z,0.70
2023-03-08T19:40:50.666Z,0.50
2023-03-08T19:43:17.229Z,0.90
2023-03-08T19:45:49.024Z,0.60
2023-03-08T19:48:15.714Z,0.50
2023-03-08T19:50:48.247Z,0.70
2023-03-08T19:53:14.827Z,0.60
2023-03-08T19:55:52.284Z,0.40
2023-03-08T19:58:19.809Z,0.50
2023-03-08T20:00:47.185Z,0.40
2023-03-08T20:03:15.569Z,0.40
2023-03-08T20:05:57.984Z,0.40
2023-03-08T20:08:24.704Z,0.40
2023-03-08T20:10:51.648Z,0.30
2023-03-08T20:13:18.482Z,0.30
2023-03-08T20:15:45.406Z,1.70
2023-03-08T20:18:12.598Z,1.83
2023-03-08T20:20:39.141Z,1.70
2023-03-08T20:23:06.363Z,2.05
2023-03-08T20:25:34.779Z,2.78
2023-03-08T20:28:01.921Z,2.55
2023-03-08T20:30:29.230Z,2.20
2023-03-08T20:32:55.919Z,2.60
2023-03-08T20:35:23.984Z,2.55
2023-03-08T20:37:50.752Z,2.35
2023-03-08T20:40:18.183Z,2.10
2023-03-08T20:42:44.705Z,2.78
2023-03-08T20:45:11.731Z,1.98
2023-03-08T20:47:38.797Z,1.90
2023-03-08T20:50:05.877Z,2.00
2023-03-08T20:52:32.529Z,1.23
2023-03-08T20:54:59.167Z,1.90
2023-03-08T20:57:25.897Z,1.20
2023-03-08T20:59:52.481Z,1.52
2023-03-08T21:02:19.152Z,1.27
2023-03-08T21:04:45.730Z,1.58
2023-03-08T21:07:12.422Z,1.80
2023-03-08T21:09:39.086Z,1.30
2023-03-08T21:12:07.908Z,1.45
2023-03-08T21:14:34.673Z,0.95
2023-03-08T21:17:01.316Z,0.82
2023-03-08T21:19:27.854Z,0.88
2023-03-08T21:21:54.549Z,0.88
2023-03-08T21:24:22.933Z,0.70
2023-03-08T21:26:50.051Z,0.55
2023-03-08T21:29:19.367Z,0.57
2023-03-08T21:31:48.611Z,0.50
2023-03-08T21:34:15.891Z,0.50
2023-03-08T21:36:42.900Z,0.40
2023-03-08T21:39:09.711Z,0.50
2023-03-08T21:41:38.835Z,0.60
2023-03-08T21:44:09.568Z,0.40
2023-03-08T21:46:37.307Z,0.50
2023-03-08T21:49:04.585Z,0.50
2023-03-08T21:51:32.576Z,0.50
2023-03-08T21:53:59.570Z,0.50
2023-03-08T21:56:26.526Z,0.52
2023-03-08T21:58:53.099Z,0.70
2023-03-08T22:01:35.716Z,0.85
2023-03-08T22:04:03.760Z,0.70
2023-03-08T22:06:30.947Z,0.60
2023-03-08T22:08:57.943Z,0.55
2023-03-08T22:11:25.757Z,0.50
2023-03-08T22:13:54.794Z,0.45
2023-03-08T22:16:21.686Z,0.70
2023-03-08T22:18:48.496Z,0.43
2023-03-08T22:21:15.278Z,0.50
2023-03-08T22:23:41.794Z,0.50
2023-03-08T22:26:11.355Z,0.40
2023-03-08T22:28:38.133Z,0.40
2023-03-08T22:31:16.556Z,0.40
2023-03-08T22:33:43.299Z,0.40
2023-03-08T22:36:12.152Z,0.40
2023-03-08T22:38:39.995Z,0.40
2023-03-08T22:41:15.042Z,0.50
2023-03-08T22:43:42.493Z,0.50
2023-03-08T22:46:11.302Z,0.60
2023-03-08T22:48:37.977Z,0.63
2023-03-08T22:51:10.740Z,0.60
2023-03-08T22:53:38.710Z,0.73
2023-03-08T22:56:05.771Z,0.55
2023-03-08T22:58:32.399Z,0.70
2023-03-08T23:00:59.100Z,0.70
2023-03-08T23:03:26.220Z,0.60
2023-03-08T23:05:54.183Z,0.47
2023-03-08T23:08:22.316Z,0.50
2023-03-08T23:10:50.606Z,0.50
2023-03-08T23:13:32.782Z,0.40
2023-03-08T23:16:00.551Z,0.50
2023-03-08T23:18:27.384Z,0.50
2023-03-08T23:20:54.291Z,0.40
2023-03-08T23:23:25.080Z,0.40
2023-03-08T23:25:52.198Z,0.50
2023-03-08T23:28:19.840Z,0.60
2023-03-08T23:30:46.624Z,0.60
2023-03-08T23:33:13.277Z,0.50
2023-03-08T23:35:39.959Z,0.52
2023-03-08T23:38:06.921Z,0.60
2023-03-08T23:40:33.527Z,0.70
2023-03-08T23:43:00.301Z,0.70
2023-03-08T23:45:27.143Z,0.70
2023-03-08T23:47:53.886Z,0.55
2023-03-08T23:50:20.612Z,0.70
2023-03-08T23:52:47.158Z,0.70
2023-03-08T23:55:13.842Z,0.60
2023-03-08T23:57:40.457Z,0.50
